sensor_id;sensor_type;location;lat;lon;timestamp;P1;durP1;ratioP1;P2;durP2;ratioP2
19235;SDS011;9752;54.270;12.470;2023-11-21T00:02:02;12.67;;;11.27;;
19235;SDS011;9752;54.270;12.470;2023-11-21T00:07:04;11.97;;;10.97;;
19235;SDS011;9752;54.270;12.470;2023-11-21T00:12:07;12.00;;;10.80;;
19235;SDS011;9752;54.270;12.470;2023-11-21T00:17:11;11.50;;;10.60;;
19235;SDS011;9752;54.270;12.470;2023-11-21T00:22:13;11.93;;;10.80;;
19235;SDS011;9752;54.270;12.470;2023-11-21T00:27:16;11.47;;;10.47;;
19235;SDS011;9752;54.270;12.470;2023-11-21T00:32:19;11.13;;;10.03;;
19235;SDS011;9752;54.270;12.470;2023-11-21T00:37:20;11.30;;;10.30;;
19235;SDS011;9752;54.270;12.470;2023-11-21T00:42:22;11.17;;;10.17;;
19235;SDS011;9752;54.270;12.470;2023-11-21T00:47:26;12.47;;;10.20;;
19235;SDS011;9752;54.270;12.470;2023-11-21T00:52:28;10.30;;;9.37;;
19235;SDS011;9752;54.270;12.470;2023-11-21T00:57:30;9.37;;;8.50;;
19235;SDS011;9752;54.270;12.470;2023-11-21T01:02:33;11.57;;;10.47;;
19235;SDS011;9752;54.270;12.470;2023-11-21T01:07:35;13.87;;;11.67;;
19235;SDS011;9752;54.270;12.470;2023-11-21T01:12:38;11.30;;;10.27;;
19235;SDS011;9752;54.270;12.470;2023-11-21T01:17:41;10.87;;;9.80;;
19235;SDS011;9752;54.270;12.470;2023-11-21T01:22:43;10.47;;;9.33;;
19235;SDS011;9752;54.270;12.470;2023-11-21T01:27:45;10.80;;;9.90;;
19235;SDS011;9752;54.270;12.470;2023-11-21T01:32:48;9.80;;;9.00;;
19235;SDS011;9752;54.270;12.470;2023-11-21T01:37:50;10.67;;;9.67;;
19235;SDS011;9752;54.270;12.470;2023-11-21T01:42:52;10.00;;;9.20;;
19235;SDS011;9752;54.270;12.470;2023-11-21T01:47:56;10.73;;;9.83;;
19235;SDS011;9752;54.270;12.470;2023-11-21T01:52:58;9.60;;;8.80;;
19235;SDS011;9752;54.270;12.470;2023-11-21T01:57:59;12.60;;;9.67;;
19235;SDS011;9752;54.270;12.470;2023-11-21T02:03:03;10.67;;;9.87;;
19235;SDS011;9752;54.270;12.470;2023-11-21T02:08:04;10.63;;;9.73;;
19235;SDS011;9752;54.270;12.470;2023-11-21T02:13:07;11.00;;;10.00;;
19235;SDS011;9752;54.270;12.470;2023-11-21T02:18:10;11.60;;;10.40;;
19235;SDS011;9752;54.270;12.470;2023-11-21T02:23:13;11.20;;;10.20;;
19235;SDS011;9752;54.270;12.470;2023-11-21T02:28:14;11.43;;;9.80;;
19235;SDS011;9752;54.270;12.470;2023-11-21T02:33:26;9.73;;;8.83;;
19235;SDS011;9752;54.270;12.470;2023-11-21T02:38:29;9.43;;;8.67;;
19235;SDS011;9752;54.270;12.470;2023-11-21T02:43:31;9.00;;;8.37;;
19235;SDS011;9752;54.270;12.470;2023-11-21T02:48:32;9.80;;;9.03;;
19235;SDS011;9752;54.270;12.470;2023-11-21T02:53:36;13.43;;;9.10;;
19235;SDS011;9752;54.270;12.470;2023-11-21T02:58:41;9.83;;;9.07;;
19235;SDS011;9752;54.270;12.470;2023-11-21T03:03:43;9.07;;;8.37;;
19235;SDS011;9752;54.270;12.470;2023-11-21T03:08:46;10.87;;;9.50;;
19235;SDS011;9752;54.270;12.470;2023-11-21T03:13:48;8.93;;;8.13;;
19235;SDS011;9752;54.270;12.470;2023-11-21T03:18:50;8.70;;;7.90;;
19235;SDS011;9752;54.270;12.470;2023-11-21T03:23:53;8.23;;;7.63;;
19235;SDS011;9752;54.270;12.470;2023-11-21T03:28:55;9.63;;;7.93;;
19235;SDS011;9752;54.270;12.470;2023-11-21T03:33:57;9.13;;;8.23;;
19235;SDS011;9752;54.270;12.470;2023-11-21T03:39:00;9.47;;;8.67;;
19235;SDS011;9752;54.270;12.470;2023-11-21T03:44:02;9.13;;;8.23;;
19235;SDS011;9752;54.270;12.470;2023-11-21T03:49:04;7.63;;;7.03;;
19235;SDS011;9752;54.270;12.470;2023-11-21T03:54:07;8.67;;;7.97;;
19235;SDS011;9752;54.270;12.470;2023-11-21T03:59:11;8.80;;;8.10;;
19235;SDS011;9752;54.270;12.470;2023-11-21T04:04:13;8.87;;;8.07;;
19235;SDS011;9752;54.270;12.470;2023-11-21T04:09:16;8.80;;;8.00;;
19235;SDS011;9752;54.270;12.470;2023-11-21T04:14:18;8.57;;;7.83;;
19235;SDS011;9752;54.270;12.470;2023-11-21T04:19:20;8.23;;;7.53;;
19235;SDS011;9752;54.270;12.470;2023-11-21T04:24:23;8.33;;;7.63;;
19235;SDS011;9752;54.270;12.470;2023-11-21T04:29:24;10.17;;;7.87;;
19235;SDS011;9752;54.270;12.470;2023-11-21T04:34:27;9.33;;;8.33;;
19235;SDS011;9752;54.270;12.470;2023-11-21T04:39:32;9.13;;;8.27;;
19235;SDS011;9752;54.270;12.470;2023-11-21T04:44:33;10.10;;;8.27;;
19235;SDS011;9752;54.270;12.470;2023-11-21T04:49:35;8.97;;;8.17;;
19235;SDS011;9752;54.270;12.470;2023-11-21T04:54:38;8.97;;;8.27;;
19235;SDS011;9752;54.270;12.470;2023-11-21T04:59:40;8.40;;;7.80;;
19235;SDS011;9752;54.270;12.470;2023-11-21T05:04:43;8.00;;;7.40;;
19235;SDS011;9752;54.270;12.470;2023-11-21T05:09:46;9.03;;;8.33;;
19235;SDS011;9752;54.270;12.470;2023-11-21T05:14:48;15.20;;;8.07;;
19235;SDS011;9752;54.270;12.470;2023-11-21T05:19:49;8.87;;;8.03;;
19235;SDS011;9752;54.270;12.470;2023-11-21T05:24:52;9.13;;;7.93;;
19235;SDS011;9752;54.270;12.470;2023-11-21T05:29:54;10.30;;;8.23;;
19235;SDS011;9752;54.270;12.470;2023-11-21T05:34:56;9.03;;;8.13;;
19235;SDS011;9752;54.270;12.470;2023-11-21T05:39:59;11.83;;;8.47;;
19235;SDS011;9752;54.270;12.470;2023-11-21T05:45:06;9.10;;;8.40;;
19235;SDS011;9752;54.270;12.470;2023-11-21T05:50:11;10.07;;;8.87;;
19235;SDS011;9752;54.270;12.470;2023-11-21T05:55:16;10.63;;;9.63;;
19235;SDS011;9752;54.270;12.470;2023-11-21T06:00:17;10.07;;;8.90;;
19235;SDS011;9752;54.270;12.470;2023-11-21T06:05:22;11.03;;;9.10;;
19235;SDS011;9752;54.270;12.470;2023-11-21T06:10:26;9.70;;;8.90;;
19235;SDS011;9752;54.270;12.470;2023-11-21T06:15:28;9.53;;;8.73;;
19235;SDS011;9752;54.270;12.470;2023-11-21T06:20:30;8.90;;;8.20;;
19235;SDS011;9752;54.270;12.470;2023-11-21T06:25:33;8.73;;;7.90;;
19235;SDS011;9752;54.270;12.470;2023-11-21T06:30:36;10.23;;;9.23;;
19235;SDS011;9752;54.270;12.470;2023-11-21T06:35:38;10.27;;;9.27;;
19235;SDS011;9752;54.270;12.470;2023-11-21T06:40:41;11.30;;;9.80;;
19235;SDS011;9752;54.270;12.470;2023-11-21T06:45:43;11.10;;;9.23;;
19235;SDS011;9752;54.270;12.470;2023-11-21T06:50:44;11.50;;;10.33;;
19235;SDS011;9752;54.270;12.470;2023-11-21T06:55:48;10.20;;;8.97;;
19235;SDS011;9752;54.270;12.470;2023-11-21T07:00:49;8.73;;;7.73;;
19235;SDS011;9752;54.270;12.470;2023-11-21T07:05:52;9.87;;;8.27;;
19235;SDS011;9752;54.270;12.470;2023-11-21T07:10:55;10.40;;;8.73;;
19235;SDS011;9752;54.270;12.470;2023-11-21T07:15:57;9.30;;;8.10;;
19235;SDS011;9752;54.270;12.470;2023-11-21T07:20:59;8.63;;;7.93;;
19235;SDS011;9752;54.270;12.470;2023-11-21T07:26:02;9.27;;;8.47;;
19235;SDS011;9752;54.270;12.470;2023-11-21T07:31:08;11.17;;;10.10;;
19235;SDS011;9752;54.270;12.470;2023-11-21T07:36:10;10.73;;;9.77;;
19235;SDS011;9752;54.270;12.470;2023-11-21T07:41:13;10.10;;;9.10;;
19235;SDS011;9752;54.270;12.470;2023-11-21T07:46:16;10.23;;;9.37;;
19235;SDS011;9752;54.270;12.470;2023-11-21T07:51:18;9.83;;;9.03;;
19235;SDS011;9752;54.270;12.470;2023-11-21T07:56:21;10.40;;;9.50;;
19235;SDS011;9752;54.270;12.470;2023-11-21T08:01:22;10.27;;;9.33;;
19235;SDS011;9752;54.270;12.470;2023-11-21T08:06:24;11.67;;;10.50;;
19235;SDS011;9752;54.270;12.470;2023-11-21T08:11:27;10.63;;;9.73;;
19235;SDS011;9752;54.270;12.470;2023-11-21T08:16:31;9.80;;;9.00;;
19235;SDS011;9752;54.270;12.470;2023-11-21T08:21:33;10.23;;;9.30;;
19235;SDS011;9752;54.270;12.470;2023-11-21T08:26:38;10.43;;;9.43;;
19235;SDS011;9752;54.270;12.470;2023-11-21T08:31:40;11.00;;;10.10;;
19235;SDS011;9752;54.270;12.470;2023-11-21T08:36:41;10.00;;;9.10;;
19235;SDS011;9752;54.270;12.470;2023-11-21T08:41:45;17.30;;;10.03;;
19235;SDS011;9752;54.270;12.470;2023-11-21T08:46:46;10.30;;;9.30;;
19235;SDS011;9752;54.270;12.470;2023-11-21T08:51:49;10.03;;;9.33;;
19235;SDS011;9752;54.270;12.470;2023-11-21T08:56:52;11.67;;;9.63;;
19235;SDS011;9752;54.270;12.470;2023-11-21T09:01:54;9.60;;;8.77;;
19235;SDS011;9752;54.270;12.470;2023-11-21T09:06:56;9.30;;;8.70;;
19235;SDS011;9752;54.270;12.470;2023-11-21T09:12:01;10.17;;;9.27;;
19235;SDS011;9752;54.270;12.470;2023-11-21T09:17:03;10.77;;;9.87;;
19235;SDS011;9752;54.270;12.470;2023-11-21T09:22:10;11.30;;;10.30;;
19235;SDS011;9752;54.270;12.470;2023-11-21T09:27:13;10.17;;;9.37;;
19235;SDS011;9752;54.270;12.470;2023-11-21T09:32:15;10.13;;;9.13;;
19235;SDS011;9752;54.270;12.470;2023-11-21T09:37:18;11.23;;;10.37;;
19235;SDS011;9752;54.270;12.470;2023-11-21T09:42:22;10.80;;;9.77;;
19235;SDS011;9752;54.270;12.470;2023-11-21T09:47:28;11.17;;;10.03;;
19235;SDS011;9752;54.270;12.470;2023-11-21T09:52:30;11.13;;;10.33;;
19235;SDS011;9752;54.270;12.470;2023-11-21T09:57:34;10.67;;;9.73;;
19235;SDS011;9752;54.270;12.470;2023-11-21T10:02:36;10.23;;;9.57;;
19235;SDS011;9752;54.270;12.470;2023-11-21T10:07:39;9.90;;;9.30;;
19235;SDS011;9752;54.270;12.470;2023-11-21T10:12:42;11.50;;;10.60;;
19235;SDS011;9752;54.270;12.470;2023-11-21T10:17:48;10.83;;;10.20;;
19235;SDS011;9752;54.270;12.470;2023-11-21T10:22:53;10.90;;;10.10;;
19235;SDS011;9752;54.270;12.470;2023-11-21T10:27:58;11.40;;;10.33;;
19235;SDS011;9752;54.270;12.470;2023-11-21T10:33:05;10.37;;;9.70;;
19235;SDS011;9752;54.270;12.470;2023-11-21T10:38:08;10.87;;;10.20;;
19235;SDS011;9752;54.270;12.470;2023-11-21T10:43:11;11.60;;;10.57;;
19235;SDS011;9752;54.270;12.470;2023-11-21T10:48:15;11.47;;;10.57;;
19235;SDS011;9752;54.270;12.470;2023-11-21T10:53:17;10.17;;;9.47;;
19235;SDS011;9752;54.270;12.470;2023-11-21T10:58:20;11.73;;;10.83;;
19235;SDS011;9752;54.270;12.470;2023-11-21T11:03:22;10.60;;;9.93;;
19235;SDS011;9752;54.270;12.470;2023-11-21T11:08:24;10.43;;;9.83;;
19235;SDS011;9752;54.270;12.470;2023-11-21T11:13:29;10.53;;;9.70;;
19235;SDS011;9752;54.270;12.470;2023-11-21T11:18:32;12.87;;;10.40;;
19235;SDS011;9752;54.270;12.470;2023-11-21T11:23:40;9.97;;;9.37;;
19235;SDS011;9752;54.270;12.470;2023-11-21T11:28:54;10.47;;;9.67;;
19235;SDS011;9752;54.270;12.470;2023-11-21T11:34:05;10.80;;;10.00;;
19235;SDS011;9752;54.270;12.470;2023-11-21T11:39:26;10.83;;;10.10;;
19235;SDS011;9752;54.270;12.470;2023-11-21T11:44:48;10.43;;;9.83;;
19235;SDS011;9752;54.270;12.470;2023-11-21T11:50:00;10.23;;;9.60;;
19235;SDS011;9752;54.270;12.470;2023-11-21T11:55:07;10.70;;;9.90;;
19235;SDS011;9752;54.270;12.470;2023-11-21T12:00:15;10.67;;;9.90;;
19235;SDS011;9752;54.270;12.470;2023-11-21T12:05:21;11.20;;;10.60;;
19235;SDS011;9752;54.270;12.470;2023-11-21T12:10:23;10.60;;;10.00;;
19235;SDS011;9752;54.270;12.470;2023-11-21T12:15:27;10.77;;;10.07;;
19235;SDS011;9752;54.270;12.470;2023-11-21T12:20:31;10.20;;;9.17;;
19235;SDS011;9752;54.270;12.470;2023-11-21T12:25:38;10.40;;;9.60;;
19235;SDS011;9752;54.270;12.470;2023-11-21T12:30:42;9.53;;;8.77;;
19235;SDS011;9752;54.270;12.470;2023-11-21T12:35:45;9.03;;;8.53;;
19235;SDS011;9752;54.270;12.470;2023-11-21T12:40:47;9.93;;;9.13;;
19235;SDS011;9752;54.270;12.470;2023-11-21T12:45:50;9.63;;;8.93;;
19235;SDS011;9752;54.270;12.470;2023-11-21T12:50:53;9.60;;;9.10;;
19235;SDS011;9752;54.270;12.470;2023-11-21T12:55:56;9.80;;;9.20;;
19235;SDS011;9752;54.270;12.470;2023-11-21T13:00:59;8.97;;;8.47;;
19235;SDS011;9752;54.270;12.470;2023-11-21T13:06:04;8.60;;;8.10;;
19235;SDS011;9752;54.270;12.470;2023-11-21T13:11:07;9.77;;;8.97;;
19235;SDS011;9752;54.270;12.470;2023-11-21T13:16:11;9.07;;;8.43;;
19235;SDS011;9752;54.270;12.470;2023-11-21T13:21:13;9.37;;;8.40;;
19235;SDS011;9752;54.270;12.470;2023-11-21T13:26:15;8.27;;;7.53;;
19235;SDS011;9752;54.270;12.470;2023-11-21T13:31:22;7.70;;;7.20;;
19235;SDS011;9752;54.270;12.470;2023-11-21T13:36:27;7.67;;;7.00;;
19235;SDS011;9752;54.270;12.470;2023-11-21T13:41:32;7.13;;;6.70;;
19235;SDS011;9752;54.270;12.470;2023-11-21T13:46:34;7.10;;;6.60;;
19235;SDS011;9752;54.270;12.470;2023-11-21T13:51:37;6.87;;;6.47;;
19235;SDS011;9752;54.270;12.470;2023-11-21T13:56:41;7.20;;;6.80;;
19235;SDS011;9752;54.270;12.470;2023-11-21T14:01:46;6.77;;;6.37;;
19235;SDS011;9752;54.270;12.470;2023-11-21T14:06:55;6.80;;;6.40;;
19235;SDS011;9752;54.270;12.470;2023-11-21T14:11:57;6.80;;;6.40;;
19235;SDS011;9752;54.270;12.470;2023-11-21T14:17:01;7.03;;;6.63;;
19235;SDS011;9752;54.270;12.470;2023-11-21T14:22:07;6.70;;;6.40;;
19235;SDS011;9752;54.270;12.470;2023-11-21T14:27:09;6.50;;;6.10;;
19235;SDS011;9752;54.270;12.470;2023-11-21T14:32:13;6.50;;;6.10;;
19235;SDS011;9752;54.270;12.470;2023-11-21T14:37:16;6.50;;;6.03;;
19235;SDS011;9752;54.270;12.470;2023-11-21T14:42:17;6.97;;;6.57;;
19235;SDS011;9752;54.270;12.470;2023-11-21T14:47:26;6.93;;;6.53;;
19235;SDS011;9752;54.270;12.470;2023-11-21T14:52:27;6.40;;;6.00;;
19235;SDS011;9752;54.270;12.470;2023-11-21T14:57:35;6.63;;;6.23;;
19235;SDS011;9752;54.270;12.470;2023-11-21T15:02:38;5.97;;;5.67;;
19235;SDS011;9752;54.270;12.470;2023-11-21T15:07:49;6.73;;;6.33;;
19235;SDS011;9752;54.270;12.470;2023-11-21T15:12:55;6.20;;;5.80;;
19235;SDS011;9752;54.270;12.470;2023-11-21T15:17:59;6.70;;;6.37;;
19235;SDS011;9752;54.270;12.470;2023-11-21T15:23:01;7.90;;;6.80;;
19235;SDS011;9752;54.270;12.470;2023-11-21T15:28:05;6.57;;;6.17;;
19235;SDS011;9752;54.270;12.470;2023-11-21T15:33:08;6.10;;;5.60;;
19235;SDS011;9752;54.270;12.470;2023-11-21T15:38:09;6.23;;;5.83;;
19235;SDS011;9752;54.270;12.470;2023-11-21T15:43:12;6.57;;;6.17;;
19235;SDS011;9752;54.270;12.470;2023-11-21T15:48:15;6.90;;;6.37;;
19235;SDS011;9752;54.270;12.470;2023-11-21T15:53:16;6.83;;;6.33;;
19235;SDS011;9752;54.270;12.470;2023-11-21T15:58:18;6.77;;;6.27;;
19235;SDS011;9752;54.270;12.470;2023-11-21T16:03:21;7.27;;;6.67;;
19235;SDS011;9752;54.270;12.470;2023-11-21T16:08:23;7.87;;;7.17;;
19235;SDS011;9752;54.270;12.470;2023-11-21T16:13:26;8.07;;;7.40;;
19235;SDS011;9752;54.270;12.470;2023-11-21T16:18:29;6.93;;;6.40;;
19235;SDS011;9752;54.270;12.470;2023-11-21T16:23:31;6.20;;;5.70;;
19235;SDS011;9752;54.270;12.470;2023-11-21T16:28:33;7.07;;;6.57;;
19235;SDS011;9752;54.270;12.470;2023-11-21T16:33:36;8.40;;;6.67;;
19235;SDS011;9752;54.270;12.470;2023-11-21T16:38:37;7.40;;;6.80;;
19235;SDS011;9752;54.270;12.470;2023-11-21T16:43:39;8.40;;;7.70;;
19235;SDS011;9752;54.270;12.470;2023-11-21T16:48:42;7.03;;;6.47;;
19235;SDS011;9752;54.270;12.470;2023-11-21T16:53:44;7.93;;;6.40;;
19235;SDS011;9752;54.270;12.470;2023-11-21T16:58:46;7.60;;;7.10;;
19235;SDS011;9752;54.270;12.470;2023-11-21T17:03:49;8.43;;;6.90;;
19235;SDS011;9752;54.270;12.470;2023-11-21T17:08:51;7.27;;;6.60;;
19235;SDS011;9752;54.270;12.470;2023-11-21T17:13:53;7.60;;;7.00;;
19235;SDS011;9752;54.270;12.470;2023-11-21T17:18:56;7.50;;;7.00;;
19235;SDS011;9752;54.270;12.470;2023-11-21T17:23:58;7.63;;;7.03;;
19235;SDS011;9752;54.270;12.470;2023-11-21T17:29:01;6.77;;;6.30;;
19235;SDS011;9752;54.270;12.470;2023-11-21T17:34:04;8.00;;;7.20;;
19235;SDS011;9752;54.270;12.470;2023-11-21T17:39:05;7.57;;;7.07;;
19235;SDS011;9752;54.270;12.470;2023-11-21T17:44:10;8.17;;;7.57;;
19235;SDS011;9752;54.270;12.470;2023-11-21T17:49:14;7.97;;;7.27;;
19235;SDS011;9752;54.270;12.470;2023-11-21T17:54:15;8.53;;;7.73;;
19235;SDS011;9752;54.270;12.470;2023-11-21T17:59:18;7.33;;;6.70;;
19235;SDS011;9752;54.270;12.470;2023-11-21T18:04:20;8.27;;;7.77;;
19235;SDS011;9752;54.270;12.470;2023-11-21T18:09:23;8.03;;;7.50;;
19235;SDS011;9752;54.270;12.470;2023-11-21T18:14:25;7.17;;;6.57;;
19235;SDS011;9752;54.270;12.470;2023-11-21T18:19:27;7.23;;;6.67;;
19235;SDS011;9752;54.270;12.470;2023-11-21T18:24:29;6.80;;;6.30;;
19235;SDS011;9752;54.270;12.470;2023-11-21T18:29:31;7.60;;;7.10;;
19235;SDS011;9752;54.270;12.470;2023-11-21T18:34:34;8.03;;;7.23;;
19235;SDS011;9752;54.270;12.470;2023-11-21T18:39:36;7.00;;;6.60;;
19235;SDS011;9752;54.270;12.470;2023-11-21T18:44:40;8.63;;;7.97;;
19235;SDS011;9752;54.270;12.470;2023-11-21T18:49:43;7.33;;;6.70;;
19235;SDS011;9752;54.270;12.470;2023-11-21T18:54:45;6.37;;;6.07;;
19235;SDS011;9752;54.270;12.470;2023-11-21T18:59:48;6.30;;;6.00;;
19235;SDS011;9752;54.270;12.470;2023-11-21T19:04:51;7.00;;;6.40;;
19235;SDS011;9752;54.270;12.470;2023-11-21T19:09:53;6.57;;;6.20;;
19235;SDS011;9752;54.270;12.470;2023-11-21T19:14:55;6.03;;;5.73;;
19235;SDS011;9752;54.270;12.470;2023-11-21T19:19:58;6.10;;;5.70;;
19235;SDS011;9752;54.270;12.470;2023-11-21T19:25:00;6.40;;;5.70;;
19235;SDS011;9752;54.270;12.470;2023-11-21T19:30:01;6.00;;;5.60;;
19235;SDS011;9752;54.270;12.470;2023-11-21T19:35:06;5.57;;;5.20;;
19235;SDS011;9752;54.270;12.470;2023-11-21T19:40:10;6.40;;;5.80;;
19235;SDS011;9752;54.270;12.470;2023-11-21T19:45:12;12.90;;;9.83;;
19235;SDS011;9752;54.270;12.470;2023-11-21T19:50:16;11.23;;;8.93;;
19235;SDS011;9752;54.270;12.470;2023-11-21T19:55:17;7.20;;;6.53;;
19235;SDS011;9752;54.270;12.470;2023-11-21T20:00:19;7.57;;;6.80;;
19235;SDS011;9752;54.270;12.470;2023-11-21T20:05:22;6.80;;;6.27;;
19235;SDS011;9752;54.270;12.470;2023-11-21T20:10:23;10.80;;;8.83;;
19235;SDS011;9752;54.270;12.470;2023-11-21T20:15:25;16.20;;;11.23;;
19235;SDS011;9752;54.270;12.470;2023-11-21T20:20:28;12.50;;;9.20;;
19235;SDS011;9752;54.270;12.470;2023-11-21T20:25:30;7.77;;;5.93;;
19235;SDS011;9752;54.270;12.470;2023-11-21T20:30:31;7.73;;;5.70;;
19235;SDS011;9752;54.270;12.470;2023-11-21T20:35:35;6.07;;;5.60;;
19235;SDS011;9752;54.270;12.470;2023-11-21T20:40:37;6.37;;;5.73;;
19235;SDS011;9752;54.270;12.470;2023-11-21T20:45:39;6.97;;;6.27;;
19235;SDS011;9752;54.270;12.470;2023-11-21T20:50:43;7.00;;;6.13;;
19235;SDS011;9752;54.270;12.470;2023-11-21T20:55:45;7.47;;;6.37;;
19235;SDS011;9752;54.270;12.470;2023-11-21T21:00:49;6.93;;;6.23;;
19235;SDS011;9752;54.270;12.470;2023-11-21T21:05:52;7.40;;;6.10;;
19235;SDS011;9752;54.270;12.470;2023-11-21T21:10:53;6.53;;;6.03;;
19235;SDS011;9752;54.270;12.470;2023-11-21T21:15:55;6.50;;;5.90;;
19235;SDS011;9752;54.270;12.470;2023-11-21T21:20:58;5.93;;;5.43;;
19235;SDS011;9752;54.270;12.470;2023-11-21T21:26:03;5.60;;;5.03;;
19235;SDS011;9752;54.270;12.470;2023-11-21T21:31:07;5.33;;;4.93;;
19235;SDS011;9752;54.270;12.470;2023-11-21T21:36:10;6.13;;;4.53;;
19235;SDS011;9752;54.270;12.470;2023-11-21T21:41:12;5.10;;;4.67;;
19235;SDS011;9752;54.270;12.470;2023-11-21T21:46:18;5.43;;;4.97;;
19235;SDS011;9752;54.270;12.470;2023-11-21T21:51:22;4.67;;;4.43;;
19235;SDS011;9752;54.270;12.470;2023-11-21T21:56:25;5.10;;;4.80;;
19235;SDS011;9752;54.270;12.470;2023-11-21T22:01:27;5.10;;;4.63;;
19235;SDS011;9752;54.270;12.470;2023-11-21T22:06:32;4.70;;;4.40;;
19235;SDS011;9752;54.270;12.470;2023-11-21T22:11:34;5.10;;;4.70;;
19235;SDS011;9752;54.270;12.470;2023-11-21T22:16:35;5.77;;;5.17;;
19235;SDS011;9752;54.270;12.470;2023-11-21T22:21:38;5.53;;;5.17;;
19235;SDS011;9752;54.270;12.470;2023-11-21T22:26:41;5.30;;;4.97;;
19235;SDS011;9752;54.270;12.470;2023-11-21T22:31:42;5.03;;;4.63;;
19235;SDS011;9752;54.270;12.470;2023-11-21T22:36:45;4.70;;;4.50;;
19235;SDS011;9752;54.270;12.470;2023-11-21T22:41:47;4.33;;;4.13;;
19235;SDS011;9752;54.270;12.470;2023-11-21T22:46:50;4.67;;;4.47;;
19235;SDS011;9752;54.270;12.470;2023-11-21T22:51:53;4.80;;;4.40;;
19235;SDS011;9752;54.270;12.470;2023-11-21T22:56:56;4.77;;;4.37;;
19235;SDS011;9752;54.270;12.470;2023-11-21T23:01:58;5.10;;;4.70;;
19235;SDS011;9752;54.270;12.470;2023-11-21T23:07:01;4.80;;;4.50;;
19235;SDS011;9752;54.270;12.470;2023-11-21T23:12:04;5.17;;;4.80;;
19235;SDS011;9752;54.270;12.470;2023-11-21T23:17:07;4.80;;;4.50;;
19235;SDS011;9752;54.270;12.470;2023-11-21T23:22:10;4.37;;;4.17;;
19235;SDS011;9752;54.270;12.470;2023-11-21T23:27:11;4.70;;;4.43;;
19235;SDS011;9752;54.270;12.470;2023-11-21T23:32:13;6.40;;;5.90;;
19235;SDS011;9752;54.270;12.470;2023-11-21T23:37:16;7.10;;;6.40;;
19235;SDS011;9752;54.270;12.470;2023-11-21T23:42:18;5.60;;;5.30;;
19235;SDS011;9752;54.270;12.470;2023-11-21T23:47:20;5.27;;;4.97;;
19235;SDS011;9752;54.270;12.470;2023-11-21T23:52:23;5.23;;;4.73;;
19235;SDS011;9752;54.270;12.470;2023-11-21T23:57:25;6.30;;;5.40;;
